Auberry, CA (93602)

10:37 PM PST on December 17, 2014 (GMT -0800)
South Forty Ranch | Change Station
CLOSE
Current Station
Personal Weather Station
Location: Tollhouse, CA
Elevation: 2077 ft
Nearby Weather Stations

Elev 2077 ft 36.99 °N, 119.37 °W | Updated 14 minutes ago

Overcast
Overcast
44.6 °F
Feels Like 45 °F
N
0.0
Wind Variable Wind from SSW
Gusts 0.0 mph

Today
High -- | Low -- °F
--% Chance of Precip.
Yesterday
High -- | Low -- °F
Precip. -- in
7:05 AM 4:42 PM
Waning Crescent, 16% visible
Pressure 30.15 in
Visibility 9.0 miles
Clouds Mostly Cloudy 10000 ft
Windchill 45 °F
Dew Point 44 °F
Humidity 97%
Rainfall 0.62 in
Snow Depth Not available.
UV 0 out of 12
Pollen .20 out of 12
Air Quality Not available.
Flu Activity Not available.
METAR KFAT 180553Z 10005KT 9SM BKN100 09/08 A3015 RMK AO2 SLP208 T00940078 10133 20089 51010

More Conditions Fewer Conditions

Pressure 30.15 in
Visibility 9.0 miles
Clouds Mostly Cloudy 10000 ft
Windchill 45 °F
Dew Point 44 °F
Humidity 97%
Rainfall 0.62 in
Snow Depth Not available.
UV 0 out of 12
Pollen .20 out of 12
Air Quality Not available.
Flu Activity Not available.
METAR KFAT 180553Z 10005KT 9SM BKN100 09/08 A3015 RMK AO2 SLP208 T00940078 10133 20089 51010

More Conditions Fewer Conditions

10-Day Weather Forecast

Almanac

Astronomy

Dec. 17, 2014 Rise Set
Actual Time
Civil Twilight
Nautical Twilight
Astronomical Twilight
Moon
Length of Visible Light
Length of Day
Tomorrow will be .
, % of the Moon is Illuminated

Today's Extremes

State Highs State Lows

Community

WunderPhotos

Upload Photos

1,778,896 photos uploaded!

WunderBlogs® & News

Nearby

Air Quality

  Air Quality AQ Index Pollutant
Not available.

Snow Depth

Station Depth Elevation

Earthquake Activity

City Distance Mag. Time & Date
Minimum magnitude displayed is 2.5.

Coastal Water Temperatures

Place Temperature

Nearby Weather Stations